Transfer, Pennsylvania
Current Conditions -  °F | °C
As of 6:51 AM on Saturday 25 Oct 2014 (Local Time) from KYNG Reporting Station
Broken Clouds Broken Clouds  
Wind Chill: 44°   Ceiling: 4200
Heat Index: 46°   Visibility: 10mi
Dew Point: 39°   Wind: 5mph
Humidity: 76%   Direction: 200°SSW
Pressure: 29.93"   Gusts: NA
Location:  41.33°N, 80.43°W
Report Text: KYNG 251051Z 20004KT 10SM BKN042 08/04 A2993 RMK AO2 SLP137 T00780039 $
Loading
Personal Weather Stations






























Interactive Weather Map
Tropical Storm Tracking
New forecast layout! Learn more

10-Day Weather Forecast

Advertisements
Track Severe Weather on mobile